Time;durP1;ratioP1;P1;durP2;ratioP2;P2;SDS_P1;SDS_P2;PMS_P1;PMS_P2;Temp;Humidity;BMP_temperature;BMP_pressure;BME280_temperature;BME280_humidity;BME280_pressure;Samples;Min_cycle;Max_cycle;Signal;HPM_P1;HPM_P2
2023/10/29 00:00:01;;;;;;;2.80;1.50;;;14.60;99.90;;;;;;4969128;28;20533;-86
2023/10/29 00:02:53;;;;;;;1.60;1.37;;;14.80;99.90;;;;;;4976967;28;20489;-87
2023/10/29 00:05:47;;;;;;;2.40;1.40;;;14.80;99.90;;;;;;4977544;28;20459;-86
2023/10/29 00:08:57;;;;;;;6.57;1.50;;;14.80;99.90;;;;;;4986248;28;20582;-87
2023/10/29 00:11:34;;;;;;;5.07;1.30;;;14.90;99.90;;;;;;4979692;28;20558;-86
2023/10/29 00:15:11;;;;;;;1.00;0.90;;;14.90;99.90;;;;;;4984849;28;20453;-87
2023/10/29 00:21:51;;;;;;;;;;;;;;;;;;;;;
2023/10/29 00:28:13;;;;;;;1.10;1.00;;;14.70;99.90;;;;;;4962810;28;20469;-86
2023/10/29 00:31:12;;;;;;;1.90;1.07;;;14.90;99.90;;;;;;4977796;28;20864;-86
2023/10/29 00:34:02;;;;;;;2.20;1.03;;;15.00;99.90;;;;;;4978885;28;20475;-87
2023/10/29 00:36:45;;;;;;;3.10;1.20;;;15.00;99.90;;;;;;4979500;28;20541;-87
2023/10/29 00:39:19;;;;;;;2.50;1.10;;;14.70;99.90;;;;;;4967647;28;21121;-87
2023/10/29 00:41:57;;;;;;;2.20;1.47;;;14.90;99.90;;;;;;4981380;28;20454;-86
2023/10/29 00:44:33;;;;;;;1.23;1.23;;;14.90;99.90;;;;;;5004173;28;20463;-86
2023/10/29 00:47:22;;;;;;;1.83;1.73;;;15.00;99.90;;;;;;4992156;28;20493;-86
2023/10/29 00:50:38;;;;;;;1.90;1.33;;;15.10;99.90;;;;;;4983542;28;20532;-86
2023/10/29 00:53:41;;;;;;;1.33;1.03;;;14.90;99.90;;;;;;4971488;28;21193;-89
2023/10/29 00:56:24;;;;;;;2.20;1.60;;;14.90;99.90;;;;;;4962071;28;20476;-87
2023/10/29 01:02:10;;;;;;;2.80;1.30;;;14.80;99.90;;;;;;4995459;28;20470;-87
2023/10/29 01:04:37;;;;;;;1.67;1.03;;;14.90;99.90;;;;;;5055144;28;20463;-87
2023/10/29 01:07:40;;;;;;;1.33;1.23;;;14.90;99.90;;;;;;5070164;28;20801;-87
2023/10/29 01:10:21;;;;;;;1.77;1.10;;;15.00;99.90;;;;;;5027267;28;20484;-87
2023/10/29 01:12:48;;;;;;;1.70;1.20;;;15.00;99.90;;;;;;5069889;28;21017;-87
2023/10/29 01:15:14;;;;;;;0.90;0.90;;;15.20;99.90;;;;;;5078941;28;20467;-89
2023/10/29 01:17:42;;;;;;;3.63;1.13;;;15.20;99.90;;;;;;5082351;28;20454;-85
2023/10/29 01:20:11;;;;;;;3.60;1.00;;;15.40;99.90;;;;;;5082881;28;20479;-88
2023/10/29 01:22:38;;;;;;;1.90;1.17;;;15.50;99.90;;;;;;5071464;28;20485;-87
2023/10/29 01:25:09;;;;;;;2.03;1.40;;;15.50;99.90;;;;;;5068066;28;20689;-87
2023/10/29 01:27:37;;;;;;;1.73;0.97;;;15.50;99.90;;;;;;5062171;28;20443;-87
2023/10/29 01:30:08;;;;;;;1.63;1.07;;;15.70;99.90;;;;;;5077561;28;21109;-87
2023/10/29 01:32:34;;;;;;;4.60;1.20;;;15.80;99.90;;;;;;5068586;28;20474;-88
2023/10/29 01:35:02;;;;;;;1.20;1.10;;;15.90;99.90;;;;;;5082694;28;20452;-89
2023/10/29 01:37:30;;;;;;;2.00;0.83;;;15.80;99.90;;;;;;5077119;28;20476;-87
2023/10/29 01:39:59;;;;;;;2.00;0.80;;;15.90;99.90;;;;;;5069347;28;20455;-86
2023/10/29 01:42:27;;;;;;;1.63;0.87;;;15.90;99.90;;;;;;5064248;28;20474;-87
2023/10/29 01:44:54;;;;;;;0.87;0.83;;;15.90;99.90;;;;;;5057056;28;20453;-86
2023/10/29 01:47:25;;;;;;;1.00;0.90;;;16.00;99.90;;;;;;5071576;28;20450;-88
2023/10/29 01:53:32;;;;;;;1.13;0.93;;;16.10;99.90;;;;;;5054379;28;21094;-87
2023/10/29 01:56:41;;;;;;;1.63;0.90;;;16.10;99.90;;;;;;5054959;28;20431;-87
2023/10/29 01:59:44;;;;;;;3.10;1.20;;;16.10;99.90;;;;;;5066900;28;20859;-87
2023/10/29 02:02:47;;;;;;;1.00;0.73;;;16.10;99.90;;;;;;5069942;28;20474;-87
2023/10/29 02:09:46;;;;;;;9.07;1.37;;;16.20;99.90;;;;;;5092026;28;20455;-86
2023/10/29 02:12:40;;;;;;;1.10;0.87;;;16.30;99.90;;;;;;5087091;28;20546;-88
2023/10/29 02:19:10;;;;;;;2.10;0.73;;;16.10;99.90;;;;;;5065990;28;20506;-88
2023/10/29 02:26:11;;;;;;;1.13;1.03;;;16.00;99.90;;;;;;5084277;28;20554;-88
2023/10/29 02:29:21;;;;;;;2.67;1.03;;;15.90;99.90;;;;;;5056152;28;20486;-87
2023/10/29 02:32:39;;;;;;;2.10;0.70;;;15.80;99.90;;;;;;5036036;28;20508;-87
2023/10/29 02:35:49;;;;;;;1.10;0.80;;;15.70;99.90;;;;;;5026623;28;20534;-87
2023/10/29 02:49:00;;;;;;;2.97;1.00;;;15.60;99.90;;;;;;5079217;28;21219;-88
2023/10/29 02:51:58;;;;;;;1.50;0.80;;;15.60;99.90;;;;;;5044419;28;20529;-85
2023/10/29 02:55:20;;;;;;;1.10;0.90;;;15.70;99.90;;;;;;5062053;28;20448;-88
2023/10/29 02:58:27;;;;;;;1.50;0.80;;;15.70;99.90;;;;;;5062653;28;20439;-87
2023/10/29 03:01:22;;;;;;;1.27;0.60;;;15.60;99.90;;;;;;5021971;28;20450;-88
2023/10/29 03:04:26;;;;;;;1.20;1.10;;;15.70;99.90;;;;;;5057129;28;20558;-89
2023/10/29 03:08:00;;;;;;;1.90;0.70;;;15.70;99.90;;;;;;5060128;28;20425;-86
2023/10/29 03:14:26;;;;;;;1.90;0.90;;;15.80;99.90;;;;;;5088420;28;20458;-87
2023/10/29 03:21:28;;;;;;;2.03;0.90;;;15.80;99.90;;;;;;5077737;28;20978;-88
2023/10/29 03:24:34;;;;;;;1.07;0.97;;;15.80;99.90;;;;;;5072739;28;20457;-87
2023/10/29 03:27:54;;;;;;;1.10;0.70;;;15.80;99.90;;;;;;5052134;28;20611;-85
2023/10/29 03:31:00;;;;;;;1.70;0.90;;;15.80;99.90;;;;;;5046504;28;21481;-86
2023/10/29 03:37:20;;;;;;;1.40;0.70;;;15.90;99.90;;;;;;5075782;28;21100;-89
2023/10/29 03:40:32;;;;;;;2.50;0.70;;;15.90;99.90;;;;;;5074726;28;20487;-86
2023/10/29 03:47:05;;;;;;;2.30;0.90;;;15.90;99.90;;;;;;5067690;28;20450;-85
2023/10/29 03:50:06;;;;;;;1.20;0.80;;;15.90;99.90;;;;;;5044984;28;20483;-85
2023/10/29 03:56:30;;;;;;;1.27;0.90;;;15.90;99.90;;;;;;4993445;28;20435;-87
2023/10/29 03:59:52;;;;;;;1.20;0.70;;;16.00;99.90;;;;;;4977220;28;20534;-86
2023/10/29 04:02:50;;;;;;;1.80;0.70;;;15.90;99.90;;;;;;4996214;28;20478;-87
2023/10/29 04:05:54;;;;;;;0.70;0.60;;;15.90;99.90;;;;;;4994405;28;20448;-86
2023/10/29 04:09:16;;;;;;;0.77;0.70;;;15.90;99.90;;;;;;4971046;28;20501;-85
2023/10/29 04:12:27;;;;;;;0.90;0.80;;;15.80;99.90;;;;;;4974520;28;20703;-86
2023/10/29 04:15:21;;;;;;;1.13;0.70;;;15.90;99.90;;;;;;4973094;28;20443;-86
2023/10/29 04:18:16;;;;;;;1.63;0.70;;;16.00;99.90;;;;;;4910134;29;20445;-88
2023/10/29 04:24:25;;;;;;;1.17;0.70;;;16.00;99.90;;;;;;4918947;29;20462;-89
2023/10/29 04:27:20;;;;;;;0.80;0.80;;;16.00;99.90;;;;;;4912456;29;20434;-87
2023/10/29 04:30:30;;;;;;;0.67;0.67;;;16.00;99.90;;;;;;4913335;29;20493;-87
2023/10/29 04:34:10;;;;;;;1.43;0.90;;;16.00;99.90;;;;;;4944808;28;20469;-87
2023/10/29 04:37:26;;;;;;;2.10;1.20;;;16.00;99.90;;;;;;4955138;28;20554;-87
2023/10/29 04:43:37;;;;;;;1.53;0.93;;;16.00;99.90;;;;;;4982516;28;20521;-86
2023/10/29 04:46:54;;;;;;;0.83;0.77;;;16.00;99.90;;;;;;4966248;28;20466;-86
2023/10/29 04:49:55;;;;;;;1.30;0.80;;;16.00;99.90;;;;;;4911537;29;20521;-87
2023/10/29 04:53:15;;;;;;;0.83;0.83;;;16.20;99.90;;;;;;4960325;22;20494;-87
2023/10/29 04:56:46;;;;;;;1.10;0.77;;;16.10;99.90;;;;;;4943629;28;20448;-88
2023/10/29 05:00:11;;;;;;;0.70;0.70;;;16.20;99.90;;;;;;4945765;28;20877;-86
2023/10/29 05:03:18;;;;;;;0.70;0.70;;;16.10;99.90;;;;;;4944554;28;20492;-86
2023/10/29 05:06:41;;;;;;;4.20;0.70;;;16.20;99.90;;;;;;4929904;28;20536;-87
2023/10/29 05:09:46;;;;;;;1.27;0.70;;;16.00;99.90;;;;;;4948572;28;20544;-86
2023/10/29 05:16:42;;;;;;;;;;;;;;;;;;;;;
2023/10/29 05:19:57;;;;;;;5.27;0.93;;;16.30;99.90;;;;;;4866170;29;20460;-88
2023/10/29 05:22:53;;;;;;;4.23;0.90;;;16.30;99.90;;;;;;4859101;29;20488;-88
2023/10/29 05:25:57;;;;;;;0.80;0.63;;;16.30;99.70;;;;;;4855311;29;20831;-87
2023/10/29 05:29:07;;;;;;;1.00;0.90;;;16.30;99.50;;;;;;4871685;29;20593;-89
2023/10/29 05:32:17;;;;;;;2.63;0.90;;;16.30;99.50;;;;;;4889447;29;20490;-86
2023/10/29 05:34:49;;;;;;;1.97;0.70;;;16.30;99.40;;;;;;4904801;29;20456;-88
2023/10/29 05:37:56;;;;;;;1.17;1.00;;;16.40;99.20;;;;;;4914777;29;20461;-86
2023/10/29 05:40:40;;;;;;;1.10;0.50;;;16.40;99.30;;;;;;4922804;29;20540;-86
2023/10/29 05:43:36;;;;;;;1.80;0.90;;;16.30;99.20;;;;;;4916595;29;20575;-87
2023/10/29 05:46:54;;;;;;;0.80;0.57;;;16.30;99.30;;;;;;4921148;29;20512;-86
2023/10/29 05:50:00;;;;;;;;;;;;;;;;;;;;;
2023/10/29 05:53:12;;;;;;;2.30;0.60;;;16.40;99.30;;;;;;4915763;28;20465;-87
2023/10/29 05:59:35;;;;;;;1.10;0.60;;;16.40;99.10;;;;;;4950889;28;20440;-88
2023/10/29 06:06:02;;;;;;;1.47;0.60;;;16.30;99.20;;;;;;5018610;28;20457;-89
2023/10/29 06:12:59;;;;;;;1.07;0.70;;;16.30;98.70;;;;;;5019207;28;20502;-89
2023/10/29 06:19:34;;;;;;;4.00;0.90;;;16.40;98.80;;;;;;5024862;28;20518;-89
2023/10/29 06:22:52;;;;;;;1.10;1.00;;;16.50;98.90;;;;;;4993580;28;20493;-90
2023/10/29 06:25:52;;;;;;;1.07;0.60;;;16.40;98.80;;;;;;4978720;28;20449;-90
2023/10/29 06:29:06;;;;;;;0.90;0.60;;;16.30;98.80;;;;;;5029053;28;20468;-90
2023/10/29 06:32:41;;;;;;;;;;;;;;;;;;;;;
2023/10/29 06:35:40;;;;;;;0.90;0.60;;;16.30;98.80;;;;;;5028106;28;20536;-89
2023/10/29 06:38:48;;;;;;;0.57;0.57;;;16.20;98.70;;;;;;5011758;28;20518;-89
2023/10/29 06:41:45;;;;;;;3.30;0.83;;;16.30;98.60;;;;;;4991776;28;20455;-92
2023/10/29 06:45:10;;;;;;;1.33;0.90;;;16.20;98.60;;;;;;4999367;28;20444;-89
2023/10/29 06:48:03;;;;;;;1.10;0.90;;;16.20;98.60;;;;;;4989720;28;20455;-89
2023/10/29 06:51:21;;;;;;;;;;;;;;;;;;;;;
2023/10/29 06:56:54;;;;;;;0.80;0.60;;;16.10;98.70;;;;;;5090996;22;20526;-88
2023/10/29 07:00:32;;;;;;;0.60;0.60;;;16.10;98.90;;;;;;5066237;28;20445;-87
2023/10/29 07:03:43;;;;;;;1.50;0.77;;;16.10;98.90;;;;;;5028835;28;20445;-87
2023/10/29 07:07:13;;;;;;;1.70;0.60;;;16.10;99.00;;;;;;4969696;28;20444;-87
2023/10/29 07:11:00;;;;;;;;;;;;;;;;;;;;;
2023/10/29 07:17:48;;;;;;;3.50;0.63;;;16.10;99.30;;;;;;4950690;28;21932;-88
2023/10/29 07:21:03;;;;;;;0.83;0.70;;;16.00;99.30;;;;;;4945257;28;20460;-86
2023/10/29 07:27:30;;;;;;;0.87;0.60;;;16.10;99.20;;;;;;4932891;28;20452;-87
2023/10/29 07:30:47;;;;;;;3.40;0.93;;;16.10;99.30;;;;;;4936102;28;20491;-87
2023/10/29 07:34:18;;;;;;;0.60;0.60;;;16.00;99.40;;;;;;4941894;28;20913;-88
2023/10/29 07:36:52;;;;;;;0.53;0.53;;;16.10;99.70;;;;;;4946259;28;20463;-88
2023/10/29 07:40:04;;;;;;;1.43;1.03;;;16.10;99.70;;;;;;4964926;28;20882;-87
2023/10/29 07:43:30;;;;;;;0.80;0.77;;;16.30;99.60;;;;;;5043768;28;21086;-87
2023/10/29 07:46:54;;;;;;;1.10;0.77;;;16.30;99.50;;;;;;5028606;28;20486;-87
2023/10/29 07:50:11;;;;;;;1.23;0.97;;;16.30;99.60;;;;;;5023136;28;20448;-88
2023/10/29 07:53:20;;;;;;;0.80;0.50;;;16.20;99.60;;;;;;4988986;28;20650;-88
2023/10/29 07:56:41;;;;;;;1.37;0.70;;;16.20;99.90;;;;;;4945896;28;20440;-87
2023/10/29 08:00:05;;;;;;;;;;;;;;;;;;;;;
2023/10/29 08:06:23;;;;;;;1.03;0.60;;;16.40;98.70;;;;;;4961007;28;20456;-88
2023/10/29 08:09:48;;;;;;;0.83;0.80;;;16.50;98.00;;;;;;4951320;28;20598;-87
2023/10/29 08:13:18;;;;;;;1.87;0.77;;;16.60;97.90;;;;;;4952884;28;20451;-89
2023/10/29 08:16:45;;;;;;;0.90;0.60;;;16.70;97.70;;;;;;4951466;28;20423;-89
2023/10/29 08:19:43;;;;;;;2.70;0.93;;;16.80;97.50;;;;;;4946208;28;20461;-88
2023/10/29 09:36:27;;;;;;;0.50;0.50;;;17.00;96.10;;;;;;5042941;28;20512;-86
2023/10/29 09:40:08;;;;;;;1.43;0.80;;;17.00;95.90;;;;;;4972666;28;20435;-87
2023/10/29 09:43:39;;;;;;;1.27;0.70;;;16.80;96.00;;;;;;4977741;28;20469;-87
2023/10/29 09:46:44;;;;;;;1.00;0.77;;;16.70;96.00;;;;;;4991130;28;20487;-87
2023/10/29 09:49:44;;;;;;;2.10;1.07;;;16.80;96.10;;;;;;4986619;28;20454;-87
2023/10/29 09:53:24;;;;;;;;;;;;;;;;;;;;;
2023/10/29 09:56:21;;;;;;;3.13;0.83;;;16.80;96.10;;;;;;4998070;28;20523;-88
2023/10/29 09:59:32;;;;;;;3.10;0.70;;;16.80;95.80;;;;;;4995966;28;20634;-87
2023/10/29 10:02:43;;;;;;;;;;;;;;;;;;;;;
2023/10/29 10:05:30;;;;;;;1.33;0.80;;;17.10;95.50;;;;;;4991942;28;20578;-87
2023/10/29 11:30:20;;;;;;;1.30;0.70;;;17.10;97.00;;;;;;4928950;28;20480;-87
2023/10/29 11:33:24;;;;;;;0.57;0.57;;;17.00;97.20;;;;;;4925721;29;20495;-87
2023/10/29 11:36:35;;;;;;;1.23;1.00;;;17.00;97.90;;;;;;4891636;29;21082;-86
2023/10/29 11:39:51;;;;;;;1.60;0.70;;;17.10;97.90;;;;;;4896452;29;20754;-87
2023/10/29 11:42:43;;;;;;;0.97;0.87;;;17.50;97.50;;;;;;4902166;28;20491;-87
2023/10/29 11:49:26;;;;;;;1.43;1.00;;;17.70;96.50;;;;;;4959058;28;20456;-88
2023/10/29 11:52:30;;;;;;;0.70;0.70;;;17.60;96.80;;;;;;4951091;28;20492;-88
2023/10/29 11:56:09;;;;;;;;;;;;;;;;;;;;;
2023/10/29 11:59:16;;;;;;;0.70;0.60;;;17.60;96.90;;;;;;4928463;28;20751;-89
2023/10/29 12:02:41;;;;;;;2.50;0.87;;;17.60;97.10;;;;;;4963772;28;20465;-88
2023/10/29 12:05:56;;;;;;;1.30;0.90;;;17.60;97.10;;;;;;4950243;28;20535;-86
2023/10/29 12:16:35;;;;;;;0.87;0.60;;;17.30;96.60;;;;;;5033097;28;20440;-88
2023/10/29 12:19:33;;;;;;;0.70;0.70;;;17.00;97.10;;;;;;4988489;28;20509;-86
2023/10/29 12:22:40;;;;;;;0.60;0.50;;;17.30;96.90;;;;;;4997417;28;20481;-86
2023/10/29 12:29:49;;;;;;;0.70;0.50;;;17.30;96.40;;;;;;4982961;28;20509;-87
2023/10/29 12:33:29;;;;;;;0.70;0.70;;;17.40;96.30;;;;;;4983069;28;20486;-86
2023/10/29 12:36:46;;;;;;;;;;;;;;;;;;;;;
2023/10/29 12:40:17;;;;;;;0.97;0.73;;;17.50;96.00;;;;;;5003906;28;20453;-87
2023/10/29 12:43:38;;;;;;;0.60;0.60;;;17.40;96.00;;;;;;5008773;28;20489;-87
2023/10/29 12:46:49;;;;;;;1.43;0.70;;;17.40;95.90;;;;;;4895909;29;20445;-88
2023/10/29 12:50:20;;;;;;;0.43;0.40;;;17.40;96.20;;;;;;4938007;28;20430;-87
2023/10/29 12:53:40;;;;;;;0.67;0.50;;;17.40;96.20;;;;;;5007826;28;20486;-86
2023/10/29 13:00:56;;;;;;;1.70;0.57;;;17.10;97.00;;;;;;4962831;28;22591;-88
2023/10/29 13:03:52;;;;;;;0.77;0.60;;;17.10;97.00;;;;;;4959044;28;20615;-86
2023/10/29 13:10:47;;;;;;;0.80;0.70;;;17.30;97.00;;;;;;4915689;29;20464;-88
2023/10/29 13:14:11;;;;;;;1.47;0.50;;;17.10;97.40;;;;;;4885514;29;20667;-87
2023/10/29 13:20:59;;;;;;;1.63;0.60;;;17.40;98.10;;;;;;4904547;29;20438;-87
2023/10/29 13:23:54;;;;;;;0.37;0.37;;;17.50;98.30;;;;;;4889480;29;20465;-87
2023/10/29 13:27:09;;;;;;;0.60;0.60;;;17.50;98.30;;;;;;4902842;29;20462;-86
2023/10/29 13:30:30;;;;;;;2.50;0.70;;;17.30;98.10;;;;;;4898877;29;20508;-88
2023/10/29 13:33:45;;;;;;;0.70;0.60;;;17.30;98.20;;;;;;4906117;29;20470;-87
2023/10/29 13:41:02;;;;;;;;;;;;;;;;;;;;;
2023/10/29 13:44:51;;;;;;;1.43;0.70;;;17.10;98.90;;;;;;4922591;28;20585;-86
2023/10/29 13:48:29;;;;;;;1.67;0.77;;;17.10;98.90;;;;;;4958796;28;20464;-88
2023/10/29 13:51:34;;;;;;;0.70;0.70;;;17.30;98.80;;;;;;4894314;29;20497;-85
2023/10/29 13:54:44;;;;;;;0.90;0.90;;;17.10;98.50;;;;;;4879545;28;20463;-86
2023/10/29 14:01:51;;;;;;;1.20;0.60;;;16.90;98.50;;;;;;4907608;29;20502;-86
2023/10/29 14:05:49;;;;;;;0.80;0.70;;;16.90;98.70;;;;;;4889407;29;20506;-87
2023/10/29 14:09:25;;;;;;;0.40;0.40;;;17.00;98.60;;;;;;4884090;29;20495;-86
2023/10/29 14:16:55;;;;;;;0.70;0.63;;;17.20;98.20;;;;;;4800266;29;20780;-86
2023/10/29 14:19:53;;;;;;;0.67;0.40;;;17.10;98.10;;;;;;4728452;30;20465;-87
2023/10/29 14:23:18;;;;;;;;;;;;;;;;;;;;;
2023/10/29 14:30:19;;;;;;;0.70;0.70;;;17.40;96.80;;;;;;4759905;30;20449;-87
2023/10/29 14:34:02;;;;;;;;;;;;;;;;;;;;;
2023/10/29 14:37:22;;;;;;;0.90;0.70;;;17.50;96.80;;;;;;4828136;29;20468;-88
2023/10/29 14:40:53;;;;;;;1.03;0.80;;;17.40;96.60;;;;;;4852529;29;20440;-87
2023/10/29 14:44:09;;;;;;;0.97;0.97;;;17.40;96.40;;;;;;4942028;28;20516;-86
2023/10/29 14:47:55;;;;;;;1.13;0.80;;;17.70;95.80;;;;;;4943998;29;20521;-86
2023/10/29 14:51:05;;;;;;;0.40;0.40;;;17.40;95.50;;;;;;4915916;29;20465;-86
2023/10/29 14:57:29;;;;;;;0.60;0.60;;;17.50;94.60;;;;;;4933570;28;20484;-86
2023/10/29 15:00:37;;;;;;;1.03;0.87;;;17.40;94.60;;;;;;4932666;28;20477;-87
2023/10/29 15:03:50;;;;;;;1.27;1.17;;;17.20;94.90;;;;;;4890778;29;20456;-88
2023/10/29 15:07:17;;;;;;;0.47;0.47;;;17.30;94.80;;;;;;4841381;29;20471;-86
2023/10/29 15:10:36;;;;;;;0.93;0.80;;;17.40;94.50;;;;;;4814644;29;20451;-86
2023/10/29 15:18:04;;;;;;;1.37;0.70;;;17.10;94.50;;;;;;4803931;29;20559;-87
2023/10/29 15:25:16;;;;;;;1.17;1.00;;;17.30;94.60;;;;;;4774299;29;20552;-87
2023/10/29 15:29:02;;;;;;;0.80;0.57;;;17.30;94.30;;;;;;4773421;29;20474;-88
2023/10/29 15:32:23;;;;;;;;;;;;;;;;;;;;;
2023/10/29 15:38:46;;;;;;;0.80;0.80;;;17.00;94.90;;;;;;4750618;30;20716;-85
2023/10/29 15:41:42;;;;;;;0.53;0.53;;;17.10;94.80;;;;;;4783812;29;20458;-85
2023/10/29 15:44:46;;;;;;;0.90;0.80;;;17.00;94.90;;;;;;4887610;29;20546;-86
2023/10/29 15:47:56;;;;;;;0.57;0.57;;;17.00;95.00;;;;;;4833152;29;20429;-86
2023/10/29 15:58:44;;;;;;;0.97;0.87;;;17.00;95.10;;;;;;4982270;28;20444;-88
2023/10/29 16:06:25;;;;;;;0.70;0.57;;;16.60;95.60;;;;;;4960581;28;20455;-86
2023/10/29 16:10:02;;;;;;;;;;;;;;;;;;;;;
2023/10/29 16:13:40;;;;;;;1.63;0.70;;;17.00;95.00;;;;;;4934367;28;20500;-87
2023/10/29 16:16:55;;;;;;;0.50;0.50;;;16.80;94.90;;;;;;4857396;29;20461;-87
2023/10/29 16:24:34;;;;;;;;;;;;;;;;;;;;;
2023/10/29 16:37:42;;;;;;;0.70;0.70;;;16.50;95.20;;;;;;4828264;29;20566;-86
2023/10/29 17:06:48;;;;;;;1.70;0.97;;;16.10;95.90;;;;;;1490368;26;20555;-86
2023/10/29 17:10:00;;;;;;;;;;;;;;;;;;;;;
2023/10/29 17:13:14;;;;;;;1.60;0.80;;;16.00;96.00;;;;;;4955539;28;20541;-86
2023/10/29 17:16:39;;;;;;;4.03;1.60;;;16.00;96.00;;;;;;4892601;29;20582;-84
2023/10/29 17:20:23;;;;;;;1.53;1.00;;;16.00;96.10;;;;;;4893793;29;20534;-86
2023/10/29 17:38:24;;;;;;;2.20;1.07;;;15.80;96.70;;;;;;4856668;29;20472;-85
2023/10/29 17:41:32;;;;;;;2.60;1.20;;;15.80;96.80;;;;;;4879359;29;20445;-86
2023/10/29 18:12:04;;;;;;;1.57;1.00;;;15.40;98.70;;;;;;4971267;28;20420;-87
2023/10/29 18:31:45;;;;;;;;;;;;;;;;;;;;;
2023/10/29 18:35:26;;;;;;;1.70;1.00;;;15.30;99.20;;;;;;4836361;29;20450;-87
2023/10/29 18:45:58;;;;;;;1.70;0.80;;;15.20;99.00;;;;;;4743654;29;20614;-85
2023/10/29 18:49:10;;;;;;;1.00;0.90;;;15.30;98.90;;;;;;4748049;29;20436;-86
2023/10/29 18:52:20;;;;;;;1.67;1.40;;;15.30;98.80;;;;;;4842986;29;20483;-85
2023/10/29 18:55:41;;;;;;;2.30;1.00;;;15.30;98.50;;;;;;4812590;29;20496;-86
2023/10/29 18:59:15;;;;;;;1.90;1.40;;;15.30;98.40;;;;;;4821874;29;20457;-87
2023/10/29 19:21:36;;;;;;;;;;;;;;;;;;;;;
2023/10/29 19:32:45;;;;;;;2.20;0.80;;;15.20;97.40;;;;;;4257125;26;20490;-87
2023/10/29 19:40:14;;;;;;;2.83;1.00;;;15.20;97.50;;;;;;5018926;28;20513;-87
2023/10/29 19:43:27;;;;;;;3.30;1.20;;;15.20;97.60;;;;;;4939483;28;20560;-87
2023/10/29 19:46:55;;;;;;;2.03;1.17;;;15.20;97.40;;;;;;4800498;29;20438;-87
2023/10/29 19:50:30;;;;;;;2.60;1.17;;;15.20;97.60;;;;;;4767987;30;20529;-88
2023/10/29 19:58:05;;;;;;;5.47;1.20;;;15.20;97.60;;;;;;4760806;30;20489;-85
2023/10/29 20:01:21;;;;;;;3.80;1.27;;;15.10;97.60;;;;;;4769398;29;20489;-87
2023/10/29 20:04:46;;;;;;;1.90;1.50;;;15.10;97.50;;;;;;4804155;29;20496;-87
2023/10/29 20:19:37;;;;;;;5.50;1.10;;;15.10;97.70;;;;;;4827272;29;20478;-88
2023/10/29 20:22:30;;;;;;;2.73;1.30;;;15.10;97.70;;;;;;4826609;29;20469;-89
2023/10/29 20:25:49;;;;;;;4.07;1.13;;;15.00;97.70;;;;;;4875177;29;21051;-88
2023/10/29 20:32:37;;;;;;;2.37;1.00;;;15.00;97.80;;;;;;4935411;28;20439;-87
2023/10/29 20:42:41;;;;;;;5.10;1.67;;;15.00;97.90;;;;;;4998788;28;20477;-86
2023/10/29 20:45:35;;;;;;;2.17;0.97;;;15.00;98.10;;;;;;4922390;28;20442;-87
2023/10/29 21:04:31;;;;;;;2.40;1.07;;;14.90;98.20;;;;;;4929824;28;20459;-85
2023/10/29 21:07:45;;;;;;;5.17;1.20;;;14.80;98.40;;;;;;4981417;28;20551;-86
2023/10/29 21:10:39;;;;;;;4.77;1.40;;;14.80;98.40;;;;;;4895032;29;20478;-90
2023/10/29 21:14:02;;;;;;;7.10;1.50;;;14.90;98.50;;;;;;4910339;29;20866;-87
2023/10/29 21:17:13;;;;;;;3.03;1.30;;;14.80;98.50;;;;;;4880647;29;20455;-86
2023/10/29 21:20:42;;;;;;;2.20;1.07;;;14.90;98.40;;;;;;4863269;29;20472;-86
2023/10/29 21:23:58;;;;;;;1.93;1.30;;;14.80;98.30;;;;;;5012087;22;20504;-86
2023/10/29 21:26:57;;;;;;;3.57;1.30;;;14.80;98.40;;;;;;5046244;28;20589;-88
2023/10/29 21:30:02;;;;;;;2.00;1.03;;;14.80;98.40;;;;;;5035023;28;20455;-88
2023/10/29 21:40:24;;;;;;;;;;;;;;;;;;;;;
2023/10/29 21:51:18;;;;;;;1.93;1.00;;;14.80;98.60;;;;;;5004835;28;20468;-87
2023/10/29 21:54:48;;;;;;;4.97;1.20;;;14.70;98.70;;;;;;5015417;28;20577;-86
2023/10/29 21:58:27;;;;;;;7.43;1.40;;;14.70;98.70;;;;;;5021670;28;20555;-86
2023/10/29 22:01:41;;;;;;;1.80;1.20;;;14.80;98.60;;;;;;5033523;28;20498;-84
2023/10/29 22:13:14;;;;;;;;;;;;;;;;;;;;;
2023/10/29 22:17:15;;;;;;;2.60;0.90;;;14.60;98.70;;;;;;4960963;28;20455;-85
2023/10/29 22:21:12;;;;;;;2.20;1.20;;;14.60;98.60;;;;;;4963639;28;20556;-85
2023/10/29 22:29:56;;;;;;;3.83;1.30;;;14.40;98.80;;;;;;5022720;28;20428;-85
2023/10/29 22:32:35;;;;;;;5.13;1.10;;;14.50;98.80;;;;;;5042593;28;20471;-84
2023/10/29 22:35:57;;;;;;;3.30;1.40;;;14.50;98.80;;;;;;4984580;28;20448;-84
2023/10/29 22:42:49;;;;;;;3.60;1.10;;;14.60;98.80;;;;;;5022388;28;20455;-84
2023/10/29 22:52:34;;;;;;;3.87;1.27;;;14.50;98.90;;;;;;5049741;28;20547;-86
2023/10/29 22:59:18;;;;;;;3.30;1.00;;;14.60;98.80;;;;;;5071528;28;20436;-87
2023/10/29 23:02:36;;;;;;;2.47;1.20;;;14.60;98.70;;;;;;5056313;28;20471;-86
2023/10/29 23:05:33;;;;;;;4.20;1.73;;;14.50;98.80;;;;;;5030075;28;20530;-85
2023/10/29 23:08:37;;;;;;;5.50;1.20;;;14.50;98.80;;;;;;5023025;28;20499;-86
2023/10/29 23:12:04;;;;;;;;;;;;;;;;;;;;;
2023/10/29 23:15:13;;;;;;;3.23;1.00;;;14.50;99.10;;;;;;5025839;28;20447;-84
2023/10/29 23:17:53;;;;;;;3.97;1.40;;;14.40;99.30;;;;;;5025372;28;21985;-86
2023/10/29 23:20:47;;;;;;;4.10;1.30;;;14.50;99.30;;;;;;5044121;28;20469;-87
2023/10/29 23:23:43;;;;;;;2.63;1.00;;;14.50;99.30;;;;;;5027384;28;20851;-85
2023/10/29 23:26:59;;;;;;;5.00;1.23;;;14.50;99.30;;;;;;5023379;28;20430;-85
2023/10/29 23:30:29;;;;;;;4.53;1.27;;;14.50;99.20;;;;;;5040983;28;20993;-86
2023/10/29 23:33:45;;;;;;;;;;;;;;;;;;;;;
2023/10/29 23:36:47;;;;;;;3.37;1.20;;;14.30;99.90;;;;;;5045032;28;20474;-85
2023/10/29 23:43:03;;;;;;;3.90;1.53;;;14.30;99.80;;;;;;5052446;22;20528;-83
2023/10/29 23:46:46;;;;;;;1.83;1.00;;;14.50;99.80;;;;;;4995901;28;20868;-84
2023/10/29 23:49:42;;;;;;;6.43;1.33;;;14.20;99.90;;;;;;4956575;28;21204;-86
2023/10/29 23:52:49;;;;;;;3.63;1.73;;;14.10;99.90;;;;;;5020482;28;20473;-86
2023/10/29 23:55:49;;;;;;;3.77;1.47;;;14.30;99.90;;;;;;5008969;28;20464;-84
